Time,TemperatureF,DewpointF,PressureIn,WindDirection,WindDirectionDegrees,WindSpeedMPH,WindSpeedGustMPH,Humidity,HourlyPrecipIn,Conditions,Clouds,dailyrainin,SoftwareType,DateUTC
2013-02-24 00:00:00,23.1,19.2,29.90,WSW,250,0.0,4.0,85,0.00,,,0.00,WUHU216DAVISVP2,2013-02-24 05:00:00,
2013-02-24 00:05:00,22.9,19.3,29.90,WSW,238,1.0,3.0,86,0.00,,,0.00,WUHU216DAVISVP2,2013-02-24 05:05:00,
2013-02-24 00:10:00,22.9,19.3,29.90,WSW,245,2.0,4.0,86,0.00,,,0.00,WUHU216DAVISVP2,2013-02-24 05:10:00,
2013-02-24 00:15:00,22.8,19.2,29.90,SW,235,1.0,4.0,86,0.00,,,0.00,WUHU216DAVISVP2,2013-02-24 05:15:00,
2013-02-24 00:20:00,22.7,19.1,29.90,WSW,245,1.0,4.0,86,0.00,,,0.00,WUHU216DAVISVP2,2013-02-24 05:20:00,
2013-02-24 00:25:00,22.5,18.9,29.90,WSW,252,3.0,7.0,86,0.00,,,0.00,WUHU216DAVISVP2,2013-02-24 05:25:00,
2013-02-24 00:30:00,22.4,18.5,29.91,West,264,1.0,7.0,85,0.00,,,0.00,WUHU216DAVISVP2,2013-02-24 05:30:00,
2013-02-24 00:35:00,22.3,18.7,29.90,West,260,1.0,7.0,86,0.00,,,0.00,WUHU216DAVISVP2,2013-02-24 05:35:00,
2013-02-24 00:40:00,22.2,18.6,29.90,WSW,248,0.0,6.0,86,0.00,,,0.00,WUHU216DAVISVP2,2013-02-24 05:40:00,
2013-02-24 00:45:00,22.0,18.4,29.91,WSW,251,1.0,6.0,86,0.00,,,0.00,WUHU216DAVISVP2,2013-02-24 05:45:00,
2013-02-24 00:50:00,21.9,18.6,29.90,West,273,1.0,3.0,87,0.00,,,0.00,WUHU216DAVISVP2,2013-02-24 05:50:00,
2013-02-24 00:55:00,21.9,18.6,29.90,West,264,2.0,3.0,87,0.00,,,0.00,WUHU216DAVISVP2,2013-02-24 05:55:00,
2013-02-24 01:00:00,21.7,18.4,29.90,WSW,239,2.0,4.0,87,0.00,,,0.00,WUHU216DAVISVP2,2013-02-24 06:00:00,
2013-02-24 01:05:00,21.8,18.5,29.91,WSW,237,2.0,4.0,87,0.00,,,0.00,WUHU216DAVISVP2,2013-02-24 06:05:00,
2013-02-24 01:10:00,21.9,18.6,29.91,WSW,249,0.0,4.0,87,0.00,,,0.00,WUHU216DAVISVP2,2013-02-24 06:10:00,
2013-02-24 01:15:00,21.8,18.5,29.91,WSW,248,1.0,4.0,87,0.00,,,0.00,WUHU216DAVISVP2,2013-02-24 06:15:00,
2013-02-24 01:20:00,21.9,18.6,29.91,WSW,256,2.0,4.0,87,0.00,,,0.00,WUHU216DAVISVP2,2013-02-24 06:20:00,
2013-02-24 01:25:00,21.9,18.6,29.91,WSW,256,2.0,4.0,87,0.00,,,0.00,WUHU216DAVISVP2,2013-02-24 06:25:00,
2013-02-24 01:30:00,22.1,18.8,29.91,WNW,284,2.0,5.0,87,0.00,,,0.00,WUHU216DAVISVP2,2013-02-24 06:30:00,
2013-02-24 01:35:00,22.1,18.8,29.91,WNW,294,2.0,5.0,87,0.00,,,0.00,WUHU216DAVISVP2,2013-02-24 06:35:00,
2013-02-24 01:40:00,22.1,18.8,29.92,West,280,1.0,5.0,87,0.00,,,0.00,WUHU216DAVISVP2,2013-02-24 06:40:00,
2013-02-24 01:45:00,22.1,18.8,29.92,SW,226,3.0,5.0,87,0.00,,,0.00,WUHU216DAVISVP2,2013-02-24 06:45:00,
2013-02-24 01:50:00,22.1,18.8,29.92,WSW,252,1.0,5.0,87,0.00,,,0.00,WUHU216DAVISVP2,2013-02-24 06:50:00,
2013-02-24 01:55:00,22.1,18.8,29.92,WSW,245,1.0,5.0,87,0.00,,,0.00,WUHU216DAVISVP2,2013-02-24 06:55:00,
2013-02-24 02:00:00,22.0,18.7,29.92,West,272,2.0,5.0,87,0.00,,,0.00,WUHU216DAVISVP2,2013-02-24 07:00:00,
2013-02-24 02:05:00,22.1,18.8,29.92,WNW,285,2.0,4.0,87,0.00,,,0.00,WUHU216DAVISVP2,2013-02-24 07:05:00,
2013-02-24 02:10:00,22.2,18.9,29.93,WSW,246,3.0,5.0,87,0.00,,,0.00,WUHU216DAVISVP2,2013-02-24 07:10:00,
2013-02-24 02:15:00,22.2,19.1,29.93,West,259,2.0,6.0,88,0.00,,,0.00,WUHU216DAVISVP2,2013-02-24 07:15:00,
2013-02-24 02:20:00,22.2,19.1,29.93,West,280,1.0,6.0,88,0.00,,,0.00,WUHU216DAVISVP2,2013-02-24 07:20:00,
2013-02-24 02:25:00,22.2,19.1,29.93,West,281,2.0,6.0,88,0.00,,,0.00,WUHU216DAVISVP2,2013-02-24 07:25:00,
2013-02-24 02:30:00,22.2,19.1,29.93,West,262,2.0,6.0,88,0.00,,,0.00,WUHU216DAVISVP2,2013-02-24 07:30:00,
2013-02-24 02:35:00,22.2,19.4,29.93,SW,231,2.0,5.0,89,0.00,,,0.00,WUHU216DAVISVP2,2013-02-24 07:35:00,
2013-02-24 02:40:00,22.2,19.4,29.93,WSW,238,2.0,5.0,89,0.00,,,0.00,WUHU216DAVISVP2,2013-02-24 07:40:00,
2013-02-24 02:45:00,22.3,19.5,29.93,West,269,1.0,4.0,89,0.00,,,0.00,WUHU216DAVISVP2,2013-02-24 07:45:00,
2013-02-24 02:50:00,22.4,19.6,29.93,WSW,240,5.0,6.0,89,0.00,,,0.00,WUHU216DAVISVP2,2013-02-24 07:50:00,
2013-02-24 02:55:00,22.5,19.7,29.93,West,266,3.0,6.0,89,0.00,,,0.00,WUHU216DAVISVP2,2013-02-24 07:55:00,
2013-02-24 03:00:00,22.6,19.8,29.93,WSW,240,3.0,6.0,89,0.00,,,0.00,WUHU216DAVISVP2,2013-02-24 08:00:00,
2013-02-24 03:05:00,22.7,20.2,29.93,WSW,242,3.0,6.0,90,0.00,,,0.00,WUHU216DAVISVP2,2013-02-24 08:05:00,
2013-02-24 03:10:00,22.8,20.0,29.93,WSW,257,2.0,6.0,89,0.00,,,0.00,WUHU216DAVISVP2,2013-02-24 08:10:00,
2013-02-24 03:15:00,22.9,20.4,29.93,West,264,3.0,8.0,90,0.00,,,0.00,WUHU216DAVISVP2,2013-02-24 08:15:00,
2013-02-24 03:20:00,22.9,20.4,29.93,West,271,3.0,8.0,90,0.00,,,0.00,WUHU216DAVISVP2,2013-02-24 08:20:00,
2013-02-24 03:25:00,23.0,20.5,29.93,West,277,3.0,8.0,90,0.00,,,0.00,WUHU216DAVISVP2,2013-02-24 08:25:00,
2013-02-24 03:30:00,23.0,20.5,29.93,WSW,240,3.0,8.0,90,0.00,,,0.00,WUHU216DAVISVP2,2013-02-24 08:30:00,
2013-02-24 03:35:00,23.1,20.6,29.93,West,269,3.0,8.0,90,0.00,,,0.00,WUHU216DAVISVP2,2013-02-24 08:35:00,
2013-02-24 03:40:00,23.0,20.5,29.93,West,266,3.0,8.0,90,0.00,,,0.00,WUHU216DAVISVP2,2013-02-24 08:40:00,
2013-02-24 03:45:00,23.0,20.5,29.93,WNW,287,2.0,7.0,90,0.00,,,0.00,WUHU216DAVISVP2,2013-02-24 08:45:00,
2013-02-24 03:50:00,22.9,20.4,29.93,West,274,3.0,7.0,90,0.00,,,0.00,WUHU216DAVISVP2,2013-02-24 08:50:00,
2013-02-24 03:55:00,22.8,20.3,29.93,West,267,3.0,6.0,90,0.00,,,0.00,WUHU216DAVISVP2,2013-02-24 08:55:00,
2013-02-24 04:00:00,22.7,20.2,29.94,WSW,252,1.0,6.0,90,0.00,,,0.00,WUHU216DAVISVP2,2013-02-24 09:00:00,
2013-02-24 04:05:00,22.5,20.0,29.94,West,280,1.0,5.0,90,0.00,,,0.00,WUHU216DAVISVP2,2013-02-24 09:05:00,
2013-02-24 04:10:00,22.3,19.8,29.94,West,280,0.0,5.0,90,0.00,,,0.00,WUHU216DAVISVP2,2013-02-24 09:10:00,
2013-02-24 04:15:00,22.1,19.9,29.94,West,259,2.0,4.0,91,0.00,,,0.00,WUHU216DAVISVP2,2013-02-24 09:15:00,
2013-02-24 04:20:00,22.1,19.9,29.94,WSW,249,1.0,5.0,91,0.00,,,0.00,WUHU216DAVISVP2,2013-02-24 09:20:00,
2013-02-24 04:25:00,22.0,19.8,29.94,West,271,1.0,5.0,91,0.00,,,0.00,WUHU216DAVISVP2,2013-02-24 09:25:00,
2013-02-24 04:30:00,22.0,19.7,29.94,WSW,239,1.0,5.0,91,0.00,,,0.00,WUHU216DAVISVP2,2013-02-24 09:30:00,
2013-02-24 04:35:00,22.0,19.7,29.94,WSW,240,2.0,5.0,91,0.00,,,0.00,WUHU216DAVISVP2,2013-02-24 09:35:00,
2013-02-24 04:40:00,22.1,19.8,29.94,WSW,254,1.0,4.0,91,0.00,,,0.00,WUHU216DAVISVP2,2013-02-24 09:40:00,
2013-02-24 04:45:00,22.1,19.8,29.94,SW,233,1.0,4.0,91,0.00,,,0.00,WUHU216DAVISVP2,2013-02-24 09:45:00,
2013-02-24 04:50:00,22.1,19.8,29.93,WSW,255,1.0,4.0,91,0.00,,,0.00,WUHU216DAVISVP2,2013-02-24 09:50:00,
2013-02-24 04:55:00,22.2,19.9,29.93,West,274,1.0,4.0,91,0.00,,,0.00,WUHU216DAVISVP2,2013-02-24 09:55:00,
2013-02-24 05:00:00,22.2,19.9,29.94,WSW,248,2.0,4.0,91,0.00,,,0.00,WUHU216DAVISVP2,2013-02-24 10:00:00,
2013-02-24 05:05:00,22.2,19.9,29.94,WSW,248,3.0,4.0,91,0.00,,,0.00,WUHU216DAVISVP2,2013-02-24 10:05:00,
2013-02-24 05:10:00,22.3,20.0,29.94,West,273,3.0,5.0,91,0.00,,,0.00,WUHU216DAVISVP2,2013-02-24 10:10:00,
2013-02-24 05:15:00,22.4,20.1,29.94,West,276,0.0,5.0,91,0.00,,,0.00,WUHU216DAVISVP2,2013-02-24 10:15:00,
2013-02-24 05:20:00,22.4,20.1,29.94,WSW,245,2.0,5.0,91,0.00,,,0.00,WUHU216DAVISVP2,2013-02-24 10:20:00,
2013-02-24 05:25:00,22.4,20.1,29.94,West,263,1.0,4.0,91,0.00,,,0.00,WUHU216DAVISVP2,2013-02-24 10:25:00,
2013-02-24 05:30:00,22.5,20.0,29.94,WSW,239,2.0,3.0,90,0.00,,,0.00,WUHU216DAVISVP2,2013-02-24 10:30:00,
2013-02-24 05:35:00,22.5,20.0,29.95,West,263,1.0,3.0,90,0.00,,,0.00,WUHU216DAVISVP2,2013-02-24 10:35:00,
2013-02-24 05:40:00,22.5,20.2,29.95,West,269,1.0,5.0,91,0.00,,,0.00,WUHU216DAVISVP2,2013-02-24 10:40:00,
2013-02-24 05:45:00,22.6,20.1,29.95,WSW,243,1.0,5.0,90,0.00,,,0.00,WUHU216DAVISVP2,2013-02-24 10:45:00,
2013-02-24 05:50:00,22.6,20.1,29.95,West,267,1.0,4.0,90,0.00,,,0.00,WUHU216DAVISVP2,2013-02-24 10:50:00,
2013-02-24 05:55:00,22.6,20.1,29.95,WSW,243,1.0,4.0,90,0.00,,,0.00,WUHU216DAVISVP2,2013-02-24 10:55:00,
2013-02-24 06:00:00,22.5,20.0,29.95,WSW,256,2.0,3.0,90,0.00,,,0.00,WUHU216DAVISVP2,2013-02-24 11:00:00,
2013-02-24 06:05:00,22.6,20.1,29.95,WSW,255,1.0,4.0,90,0.00,,,0.00,WUHU216DAVISVP2,2013-02-24 11:05:00,
2013-02-24 06:10:00,22.6,20.1,29.96,West,270,1.0,4.0,90,0.00,,,0.00,WUHU216DAVISVP2,2013-02-24 11:10:00,
2013-02-24 06:15:00,22.7,20.2,29.96,West,263,1.0,4.0,90,0.00,,,0.00,WUHU216DAVISVP2,2013-02-24 11:15:00,
2013-02-24 06:20:00,22.7,20.2,29.97,West,280,1.0,4.0,90,0.00,,,0.00,WUHU216DAVISVP2,2013-02-24 11:20:00,
2013-02-24 06:25:00,22.6,20.1,29.97,West,280,0.0,4.0,90,0.00,,,0.00,WUHU216DAVISVP2,2013-02-24 11:25:00,
2013-02-24 06:30:00,22.5,20.0,29.97,West,267,0.0,4.0,90,0.00,,,0.00,WUHU216DAVISVP2,2013-02-24 11:30:00,
2013-02-24 06:35:00,22.5,20.0,29.97,West,270,1.0,4.0,90,0.00,,,0.00,WUHU216DAVISVP2,2013-02-24 11:35:00,
2013-02-24 06:40:00,22.4,19.9,29.97,WSW,249,2.0,2.0,90,0.00,,,0.00,WUHU216DAVISVP2,2013-02-24 11:40:00,
2013-02-24 06:45:00,22.4,20.1,29.97,WSW,252,1.0,4.0,91,0.00,,,0.00,WUHU216DAVISVP2,2013-02-24 11:45:00,
2013-02-24 06:50:00,22.4,20.1,29.97,WSW,249,1.0,4.0,91,0.00,,,0.00,WUHU216DAVISVP2,2013-02-24 11:50:00,
2013-02-24 06:55:00,22.3,20.0,29.97,WSW,247,1.0,4.0,91,0.00,,,0.00,WUHU216DAVISVP2,2013-02-24 11:55:00,
2013-02-24 07:00:00,22.2,19.9,29.97,West,272,1.0,4.0,91,0.00,,,0.00,WUHU216DAVISVP2,2013-02-24 12:00:00,
2013-02-24 07:05:00,22.0,19.5,29.97,West,271,0.0,4.0,90,0.00,,,0.00,WUHU216DAVISVP2,2013-02-24 12:05:00,
2013-02-24 07:10:00,21.9,19.6,29.97,WSW,243,1.0,3.0,91,0.00,,,0.00,WUHU216DAVISVP2,2013-02-24 12:10:00,
2013-02-24 07:15:00,21.9,19.6,29.97,WSW,256,1.0,3.0,91,0.00,,,0.00,WUHU216DAVISVP2,2013-02-24 12:15:00,
2013-02-24 07:20:00,21.6,19.4,29.97,West,268,1.0,3.0,91,0.00,,,0.00,WUHU216DAVISVP2,2013-02-24 12:20:00,
2013-02-24 07:25:00,21.5,19.2,29.97,West,262,1.0,3.0,91,0.00,,,0.00,WUHU216DAVISVP2,2013-02-24 12:25:00,
2013-02-24 07:30:00,21.5,19.5,29.98,West,260,0.0,3.0,92,0.00,,,0.00,WUHU216DAVISVP2,2013-02-24 12:30:00,
2013-02-24 07:35:00,21.4,19.4,29.98,West,263,1.0,2.0,92,0.00,,,0.00,WUHU216DAVISVP2,2013-02-24 12:35:00,
2013-02-24 07:40:00,21.3,19.3,29.98,WSW,253,1.0,2.0,92,0.00,,,0.00,WUHU216DAVISVP2,2013-02-24 12:40:00,
2013-02-24 07:45:00,21.3,19.3,29.98,West,274,1.0,2.0,92,0.00,,,0.00,WUHU216DAVISVP2,2013-02-24 12:45:00,
2013-02-24 07:50:00,21.2,19.2,29.98,WSW,253,2.0,2.0,92,0.00,,,0.00,WUHU216DAVISVP2,2013-02-24 12:50:00,
2013-02-24 07:55:00,21.3,19.3,29.98,WSW,245,1.0,2.0,92,0.00,,,0.00,WUHU216DAVISVP2,2013-02-24 12:55:00,
2013-02-24 08:00:00,21.6,19.6,29.98,WSW,245,1.0,2.0,92,0.00,,,0.00,WUHU216DAVISVP2,2013-02-24 13:00:00,
2013-02-24 08:05:00,21.9,19.9,29.99,West,259,1.0,3.0,92,0.00,,,0.00,WUHU216DAVISVP2,2013-02-24 13:05:00,
2013-02-24 08:10:00,22.3,20.3,29.98,West,272,2.0,3.0,92,0.00,,,0.00,WUHU216DAVISVP2,2013-02-24 13:10:00,
2013-02-24 08:15:00,22.7,20.7,29.99,West,281,2.0,3.0,92,0.00,,,0.00,WUHU216DAVISVP2,2013-02-24 13:15:00,
2013-02-24 08:20:00,23.1,20.8,29.99,West,266,3.0,3.0,91,0.00,,,0.00,WUHU216DAVISVP2,2013-02-24 13:20:00,
2013-02-24 08:25:00,23.4,21.1,29.99,West,269,2.0,5.0,91,0.00,,,0.00,WUHU216DAVISVP2,2013-02-24 13:25:00,
2013-02-24 08:31:00,23.7,21.5,29.99,WNW,284,3.0,7.0,91,0.00,,,0.00,WUHU216DAVISVP2,2013-02-24 13:31:00,
2013-02-24 08:35:00,23.9,21.3,29.99,WSW,245,8.0,8.0,90,0.00,,,0.00,WUHU216DAVISVP2,2013-02-24 13:35:00,
2013-02-24 08:41:00,24.1,21.5,29.99,NW,318,2.0,8.0,90,0.00,,,0.00,WUHU216DAVISVP2,2013-02-24 13:41:00,
2013-02-24 08:45:00,24.3,21.7,29.99,WSW,245,2.0,8.0,90,0.00,,,0.00,WUHU216DAVISVP2,2013-02-24 13:45:00,
2013-02-24 08:50:00,24.5,21.9,29.99,WSW,245,5.0,7.0,90,0.00,,,0.00,WUHU216DAVISVP2,2013-02-24 13:50:00,
2013-02-24 08:55:00,24.7,22.1,29.99,WNW,283,1.0,7.0,90,0.00,,,0.00,WUHU216DAVISVP2,2013-02-24 13:55:00,
2013-02-24 09:00:00,25.0,22.2,29.99,SW,236,3.0,8.0,89,0.00,,,0.00,WUHU216DAVISVP2,2013-02-24 14:00:00,
2013-02-24 09:05:00,25.3,22.7,29.99,SW,236,4.0,8.0,90,0.00,,,0.00,WUHU216DAVISVP2,2013-02-24 14:05:00,
2013-02-24 09:11:00,25.6,22.8,30.00,West,280,5.0,7.0,89,0.00,,,0.00,WUHU216DAVISVP2,2013-02-24 14:11:00,
2013-02-24 09:16:00,25.9,23.1,30.00,WSW,249,4.0,7.0,89,0.00,,,0.00,WUHU216DAVISVP2,2013-02-24 14:16:00,
2013-02-24 09:21:00,26.3,23.2,30.00,West,276,5.0,8.0,88,0.00,,,0.00,WUHU216DAVISVP2,2013-02-24 14:21:00,
2013-02-24 09:26:00,26.7,23.6,30.00,West,266,4.0,8.0,88,0.00,,,0.00,WUHU216DAVISVP2,2013-02-24 14:26:00,
2013-02-24 09:31:00,27.0,23.9,30.00,WSW,257,3.0,8.0,88,0.00,,,0.00,WUHU216DAVISVP2,2013-02-24 14:31:00,
2013-02-24 09:35:00,27.3,23.9,30.00,West,280,4.0,8.0,87,0.00,,,0.00,WUHU216DAVISVP2,2013-02-24 14:35:00,
2013-02-24 09:41:00,27.6,24.2,30.00,West,271,3.0,8.0,87,0.00,,,0.00,WUHU216DAVISVP2,2013-02-24 14:41:00,
2013-02-24 09:46:00,27.7,24.0,30.00,WNW,283,6.0,12.0,86,0.00,,,0.00,WUHU216DAVISVP2,2013-02-24 14:46:00,
2013-02-24 09:51:00,28.0,24.0,30.01,West,280,3.0,12.0,85,0.00,,,0.00,WUHU216DAVISVP2,2013-02-24 14:51:00,
2013-02-24 09:56:00,28.1,24.1,30.00,WNW,293,6.0,12.0,85,0.00,,,0.00,WUHU216DAVISVP2,2013-02-24 14:56:00,
2013-02-24 10:01:00,28.4,24.4,30.00,West,262,5.0,12.0,85,0.00,,,0.00,WUHU216DAVISVP2,2013-02-24 15:01:00,
2013-02-24 10:06:00,28.5,24.5,30.00,West,279,6.0,13.0,85,0.00,,,0.00,WUHU216DAVISVP2,2013-02-24 15:06:00,
2013-02-24 10:11:00,28.4,24.4,30.00,West,280,5.0,13.0,85,0.00,,,0.00,WUHU216DAVISVP2,2013-02-24 15:11:00,
2013-02-24 10:16:00,28.5,24.5,30.01,West,280,7.0,13.0,85,0.00,,,0.00,WUHU216DAVISVP2,2013-02-24 15:16:00,
2013-02-24 10:21:00,28.6,24.6,30.00,West,280,5.0,13.0,85,0.00,,,0.00,WUHU216DAVISVP2,2013-02-24 15:21:00,
2013-02-24 10:26:00,28.8,24.8,30.01,West,280,3.0,12.0,85,0.00,,,0.00,WUHU216DAVISVP2,2013-02-24 15:26:00,
2013-02-24 10:31:00,29.2,25.2,30.01,West,270,5.0,12.0,85,0.00,,,0.00,WUHU216DAVISVP2,2013-02-24 15:31:00,
2013-02-24 10:36:00,29.5,25.2,30.01,West,259,5.0,12.0,84,0.00,,,0.00,WUHU216DAVISVP2,2013-02-24 15:36:00,
2013-02-24 10:41:00,29.7,25.2,30.01,West,268,6.0,15.0,83,0.00,,,0.00,WUHU216DAVISVP2,2013-02-24 15:41:00,
2013-02-24 10:46:00,29.8,25.3,30.01,West,277,7.0,15.0,83,0.00,,,0.00,WUHU216DAVISVP2,2013-02-24 15:46:00,
2013-02-24 10:51:00,30.1,25.3,30.01,West,278,8.0,15.0,82,0.00,,,0.00,WUHU216DAVISVP2,2013-02-24 15:51:00,
2013-02-24 10:56:00,30.3,25.5,30.01,WSW,256,7.0,14.0,82,0.00,,,0.00,WUHU216DAVISVP2,2013-02-24 15:56:00,
2013-02-24 11:01:00,30.6,25.8,30.02,West,260,6.0,14.0,82,0.00,,,0.00,WUHU216DAVISVP2,2013-02-24 16:01:00,
2013-02-24 11:06:00,31.0,25.9,30.01,West,274,6.0,14.0,81,0.00,,,0.00,WUHU216DAVISVP2,2013-02-24 16:06:00,
2013-02-24 11:11:00,31.4,25.9,30.01,WNW,293,5.0,14.0,80,0.00,,,0.00,WUHU216DAVISVP2,2013-02-24 16:11:00,
2013-02-24 11:16:00,31.5,25.8,30.02,WNW,282,8.0,14.0,79,0.00,,,0.00,WUHU216DAVISVP2,2013-02-24 16:16:00,
2013-02-24 11:21:00,31.4,25.7,30.02,West,275,9.0,14.0,79,0.00,,,0.00,WUHU216DAVISVP2,2013-02-24 16:21:00,
2013-02-24 11:26:00,31.6,25.8,30.02,WNW,297,7.0,13.0,79,0.00,,,0.00,WUHU216DAVISVP2,2013-02-24 16:26:00,
2013-02-24 11:31:00,32.0,26.2,30.02,WNW,287,6.0,14.0,79,0.00,,,0.00,WUHU216DAVISVP2,2013-02-24 16:31:00,
2013-02-24 11:36:00,32.3,26.5,30.02,WNW,293,6.0,14.0,79,0.00,,,0.00,WUHU216DAVISVP2,2013-02-24 16:36:00,
2013-02-24 11:41:00,32.7,26.3,30.02,West,278,9.0,14.0,77,0.00,,,0.00,WUHU216DAVISVP2,2013-02-24 16:41:00,
2013-02-24 11:46:00,32.9,26.2,30.02,WNW,293,8.0,14.0,76,0.00,,,0.00,WUHU216DAVISVP2,2013-02-24 16:46:00,
2013-02-24 11:51:00,33.0,26.0,30.02,WNW,284,5.0,14.0,75,0.00,,,0.00,WUHU216DAVISVP2,2013-02-24 16:51:00,
2013-02-24 11:56:00,32.9,25.9,30.02,West,281,7.0,14.0,75,0.00,,,0.00,WUHU216DAVISVP2,2013-02-24 16:56:00,
2013-02-24 12:01:00,32.9,25.9,30.02,WNW,285,3.0,13.0,75,0.00,,,0.00,WUHU216DAVISVP2,2013-02-24 17:01:00,
2013-02-24 12:06:00,33.5,26.1,30.02,West,274,7.0,13.0,74,0.00,,,0.00,WUHU216DAVISVP2,2013-02-24 17:06:00,
2013-02-24 12:11:00,33.8,26.1,30.02,West,278,7.0,13.0,73,0.00,,,0.00,WUHU216DAVISVP2,2013-02-24 17:11:00,
2013-02-24 12:16:00,33.9,25.9,30.02,WNW,293,8.0,13.0,72,0.00,,,0.00,WUHU216DAVISVP2,2013-02-24 17:16:00,
2013-02-24 12:21:00,34.0,26.0,30.02,West,278,8.0,14.0,72,0.00,,,0.00,WUHU216DAVISVP2,2013-02-24 17:21:00,
2013-02-24 12:26:00,33.9,25.6,30.02,NW,315,5.0,14.0,71,0.00,,,0.00,WUHU216DAVISVP2,2013-02-24 17:26:00,
2013-02-24 12:31:00,33.9,25.2,30.03,WNW,293,8.0,14.0,70,0.00,,,0.00,WUHU216DAVISVP2,2013-02-24 17:31:00,
2013-02-24 12:36:00,33.8,25.1,30.03,West,278,6.0,14.0,70,0.00,,,0.00,WUHU216DAVISVP2,2013-02-24 17:36:00,
2013-02-24 12:41:00,34.0,25.6,30.03,West,263,6.0,14.0,71,0.00,,,0.00,WUHU216DAVISVP2,2013-02-24 17:41:00,
2013-02-24 12:46:00,34.2,25.8,30.03,WNW,297,4.0,12.0,71,0.00,,,0.00,WUHU216DAVISVP2,2013-02-24 17:46:00,
2013-02-24 12:51:00,34.3,25.9,30.03,WNW,285,6.0,12.0,71,0.00,,,0.00,WUHU216DAVISVP2,2013-02-24 17:51:00,
2013-02-24 12:56:00,34.3,25.9,30.03,NW,304,8.0,12.0,71,0.00,,,0.00,WUHU216DAVISVP2,2013-02-24 17:56:00,
2013-02-24 13:01:00,34.2,25.5,30.03,WNW,297,7.0,13.0,70,0.00,,,0.00,WUHU216DAVISVP2,2013-02-24 18:01:00,
2013-02-24 13:06:00,34.4,26.0,30.03,WNW,302,6.0,13.0,71,0.00,,,0.00,WUHU216DAVISVP2,2013-02-24 18:06:00,
2013-02-24 13:11:00,34.2,25.5,30.03,NNW,329,8.0,13.0,70,0.00,,,0.00,WUHU216DAVISVP2,2013-02-24 18:11:00,
2013-02-24 13:16:00,34.2,25.5,30.03,WNW,293,5.0,14.0,70,0.00,,,0.00,WUHU216DAVISVP2,2013-02-24 18:16:00,
2013-02-24 13:21:00,34.1,25.4,30.03,WNW,290,8.0,14.0,70,0.00,,,0.00,WUHU216DAVISVP2,2013-02-24 18:21:00,
2013-02-24 13:26:00,34.2,25.5,30.03,WNW,297,6.0,14.0,70,0.00,,,0.00,WUHU216DAVISVP2,2013-02-24 18:26:00,
2013-02-24 13:31:00,34.3,25.5,30.03,WNW,288,7.0,14.0,70,0.00,,,0.00,WUHU216DAVISVP2,2013-02-24 18:31:00,
2013-02-24 13:36:00,34.6,25.5,30.03,WNW,294,8.0,14.0,69,0.00,,,0.00,WUHU216DAVISVP2,2013-02-24 18:36:00,
2013-02-24 13:41:00,34.9,25.4,30.03,West,279,8.0,11.0,68,0.00,,,0.00,WUHU216DAVISVP2,2013-02-24 18:41:00,
2013-02-24 13:46:00,34.9,25.4,30.03,WNW,301,5.0,15.0,68,0.00,,,0.00,WUHU216DAVISVP2,2013-02-24 18:46:00,
2013-02-24 13:51:00,34.7,25.3,30.03,WNW,293,7.0,15.0,68,0.00,,,0.00,WUHU216DAVISVP2,2013-02-24 18:51:00,
2013-02-24 13:56:00,34.7,24.9,30.03,WNW,291,10.0,15.0,67,0.00,,,0.00,WUHU216DAVISVP2,2013-02-24 18:56:00,
2013-02-24 14:01:00,35.5,25.3,30.03,West,274,5.0,15.0,66,0.00,,,0.00,WUHU216DAVISVP2,2013-02-24 19:01:00,
2013-02-24 14:06:00,35.4,25.2,30.03,WNW,294,7.0,14.0,66,0.00,,,0.00,WUHU216DAVISVP2,2013-02-24 19:06:00,
2013-02-24 14:11:00,35.7,25.5,30.03,WNW,287,8.0,14.0,66,0.00,,,0.00,WUHU216DAVISVP2,2013-02-24 19:11:00,
2013-02-24 14:16:00,36.1,25.2,30.03,WNW,298,9.0,17.0,64,0.00,,,0.00,WUHU216DAVISVP2,2013-02-24 19:16:00,
2013-02-24 14:21:00,36.5,25.2,30.03,WNW,291,8.0,17.0,63,0.00,,,0.00,WUHU216DAVISVP2,2013-02-24 19:21:00,
2013-02-24 14:26:00,36.4,25.5,30.04,WNW,298,8.0,17.0,64,0.00,,,0.00,WUHU216DAVISVP2,2013-02-24 19:26:00,
2013-02-24 14:31:00,35.8,25.5,30.04,West,276,5.0,17.0,66,0.00,,,0.00,WUHU216DAVISVP2,2013-02-24 19:31:00,
2013-02-24 14:36:00,35.8,25.6,30.04,WNW,285,8.0,17.0,66,0.00,,,0.00,WUHU216DAVISVP2,2013-02-24 19:36:00,
2013-02-24 14:41:00,35.3,25.5,30.04,West,277,8.0,17.0,67,0.00,,,0.00,WUHU216DAVISVP2,2013-02-24 19:41:00,
2013-02-24 14:46:00,35.1,25.7,30.04,West,281,7.0,15.0,68,0.00,,,0.00,WUHU216DAVISVP2,2013-02-24 19:46:00,
2013-02-24 14:51:00,34.7,25.3,30.04,WNW,292,7.0,15.0,68,0.00,,,0.00,WUHU216DAVISVP2,2013-02-24 19:51:00,
2013-02-24 14:56:00,34.5,25.1,30.04,WNW,287,6.0,12.0,68,0.00,,,0.00,WUHU216DAVISVP2,2013-02-24 19:56:00,
2013-02-24 15:01:00,34.4,24.9,30.04,West,265,7.0,11.0,68,0.00,,,0.00,WUHU216DAVISVP2,2013-02-24 20:01:00,
2013-02-24 15:06:00,34.4,24.6,30.05,South,184,5.0,13.0,67,0.00,,,0.00,WUHU216DAVISVP2,2013-02-24 20:06:00,
2013-02-24 15:11:00,34.6,24.8,30.05,WSW,257,5.0,13.0,67,0.00,,,0.00,WUHU216DAVISVP2,2013-02-24 20:11:00,
2013-02-24 15:16:00,34.7,24.9,30.05,WNW,290,3.0,13.0,67,0.00,,,0.00,WUHU216DAVISVP2,2013-02-24 20:16:00,
2013-02-24 15:21:00,34.8,24.7,30.05,NW,311,4.0,13.0,66,0.00,,,0.00,WUHU216DAVISVP2,2013-02-24 20:21:00,
2013-02-24 15:26:00,34.8,25.0,30.05,West,280,4.0,10.0,67,0.00,,,0.00,WUHU216DAVISVP2,2013-02-24 20:26:00,
2013-02-24 15:31:00,34.8,24.6,30.05,WSW,250,5.0,10.0,66,0.00,,,0.00,WUHU216DAVISVP2,2013-02-24 20:31:00,
2013-02-24 15:36:00,34.7,24.9,30.05,WNW,285,7.0,13.0,67,0.00,,,0.00,WUHU216DAVISVP2,2013-02-24 20:36:00,
2013-02-24 15:41:00,34.5,24.7,30.05,WNW,285,6.0,13.0,67,0.00,,,0.00,WUHU216DAVISVP2,2013-02-24 20:41:00,
2013-02-24 15:46:00,34.5,25.1,30.06,WNW,291,4.0,13.0,68,0.00,,,0.00,WUHU216DAVISVP2,2013-02-24 20:46:00,
2013-02-24 15:51:00,34.6,25.2,30.06,WNW,285,6.0,13.0,68,0.00,,,0.00,WUHU216DAVISVP2,2013-02-24 20:51:00,
2013-02-24 15:56:00,34.7,25.2,30.06,WNW,295,5.0,12.0,68,0.00,,,0.00,WUHU216DAVISVP2,2013-02-24 20:56:00,
2013-02-24 16:01:00,34.6,24.8,30.06,WNW,285,5.0,13.0,67,0.00,,,0.00,WUHU216DAVISVP2,2013-02-24 21:01:00,
2013-02-24 16:06:00,34.6,25.5,30.06,West,277,3.0,13.0,69,0.00,,,0.00,WUHU216DAVISVP2,2013-02-24 21:06:00,
2013-02-24 16:11:00,34.7,25.3,30.07,WNW,288,6.0,13.0,68,0.00,,,0.00,WUHU216DAVISVP2,2013-02-24 21:11:00,
2013-02-24 16:16:00,34.6,25.5,30.07,West,274,5.0,13.0,69,0.00,,,0.00,WUHU216DAVISVP2,2013-02-24 21:16:00,
2013-02-24 16:21:00,34.6,25.5,30.07,WNW,295,5.0,9.0,69,0.00,,,0.00,WUHU216DAVISVP2,2013-02-24 21:21:00,
2013-02-24 16:26:00,34.6,25.9,30.07,WNW,290,4.0,9.0,70,0.00,,,0.00,WUHU216DAVISVP2,2013-02-24 21:26:00,
2013-02-24 16:31:00,34.6,25.9,30.07,WNW,288,2.0,10.0,70,0.00,,,0.00,WUHU216DAVISVP2,2013-02-24 21:31:00,
2013-02-24 16:36:00,34.6,25.5,30.07,WNW,302,4.0,10.0,69,0.00,,,0.00,WUHU216DAVISVP2,2013-02-24 21:36:00,
2013-02-24 16:41:00,34.7,25.6,30.07,WNW,302,4.0,9.0,69,0.00,,,0.00,WUHU216DAVISVP2,2013-02-24 21:41:00,
2013-02-24 16:46:00,34.7,25.6,30.08,WNW,293,8.0,9.0,69,0.00,,,0.00,WUHU216DAVISVP2,2013-02-24 21:46:00,
2013-02-24 16:51:00,34.6,25.5,30.08,WNW,293,5.0,9.0,69,0.00,,,0.00,WUHU216DAVISVP2,2013-02-24 21:51:00,
2013-02-24 16:56:00,34.6,25.5,30.08,WNW,299,3.0,9.0,69,0.00,,,0.00,WUHU216DAVISVP2,2013-02-24 21:56:00,
2013-02-24 17:01:00,34.6,25.5,30.08,WNW,290,7.0,10.0,69,0.00,,,0.00,WUHU216DAVISVP2,2013-02-24 22:01:00,
2013-02-24 17:06:00,34.7,25.6,30.08,NW,311,2.0,10.0,69,0.00,,,0.00,WUHU216DAVISVP2,2013-02-24 22:06:00,
2013-02-24 17:11:00,34.7,25.6,30.08,WNW,293,5.0,10.0,69,0.00,,,0.00,WUHU216DAVISVP2,2013-02-24 22:11:00,
2013-02-24 17:16:00,34.6,25.5,30.08,WNW,302,8.0,10.0,69,0.00,,,0.00,WUHU216DAVISVP2,2013-02-24 22:16:00,
2013-02-24 17:21:00,34.5,25.4,30.08,WNW,291,5.0,9.0,69,0.00,,,0.00,WUHU216DAVISVP2,2013-02-24 22:21:00,
2013-02-24 17:26:00,34.5,25.4,30.09,WNW,289,8.0,10.0,69,0.00,,,0.00,WUHU216DAVISVP2,2013-02-24 22:26:00,
2013-02-24 17:31:00,34.5,25.4,30.09,NW,323,3.0,10.0,69,0.00,,,0.00,WUHU216DAVISVP2,2013-02-24 22:31:00,
2013-02-24 17:36:00,34.5,25.1,30.09,West,280,6.0,10.0,68,0.00,,,0.00,WUHU216DAVISVP2,2013-02-24 22:36:00,
2013-02-24 17:41:00,34.5,25.4,30.09,WNW,298,7.0,11.0,69,0.00,,,0.00,WUHU216DAVISVP2,2013-02-24 22:41:00,
2013-02-24 17:46:00,34.4,25.0,30.09,WNW,294,3.0,11.0,68,0.00,,,0.00,WUHU216DAVISVP2,2013-02-24 22:46:00,
2013-02-24 17:51:00,34.4,25.3,30.09,WNW,302,4.0,11.0,69,0.00,,,0.00,WUHU216DAVISVP2,2013-02-24 22:51:00,
2013-02-24 17:56:00,34.3,24.9,30.09,WNW,290,3.0,11.0,68,0.00,,,0.00,WUHU216DAVISVP2,2013-02-24 22:56:00,
2013-02-24 18:01:00,34.2,25.2,30.09,NNW,329,4.0,8.0,69,0.00,,,0.00,WUHU216DAVISVP2,2013-02-24 23:01:00,
2013-02-24 18:06:00,34.1,25.1,30.10,WNW,288,2.0,8.0,69,0.00,,,0.00,WUHU216DAVISVP2,2013-02-24 23:06:00,
2013-02-24 18:11:00,34.0,25.0,30.10,WNW,286,2.0,7.0,69,0.00,,,0.00,WUHU216DAVISVP2,2013-02-24 23:11:00,
2013-02-24 18:16:00,33.9,25.2,30.10,WNW,301,1.0,7.0,70,0.00,,,0.00,WUHU216DAVISVP2,2013-02-24 23:16:00,
2013-02-24 18:21:00,33.8,25.1,30.10,WSW,246,1.0,6.0,70,0.00,,,0.00,WUHU216DAVISVP2,2013-02-24 23:21:00,
2013-02-24 18:26:00,33.7,25.0,30.10,WNW,290,2.0,4.0,70,0.00,,,0.00,WUHU216DAVISVP2,2013-02-24 23:26:00,
2013-02-24 18:31:00,33.8,25.1,30.10,WNW,293,1.0,4.0,70,0.00,,,0.00,WUHU216DAVISVP2,2013-02-24 23:31:00,
2013-02-24 18:36:00,33.7,25.4,30.11,WNW,291,1.0,4.0,71,0.00,,,0.00,WUHU216DAVISVP2,2013-02-24 23:36:00,
2013-02-24 18:41:00,33.6,25.3,30.11,WNW,285,1.0,4.0,71,0.00,,,0.00,WUHU216DAVISVP2,2013-02-24 23:41:00,
2013-02-24 18:46:00,33.6,25.2,30.11,WNW,285,1.0,3.0,71,0.00,,,0.00,WUHU216DAVISVP2,2013-02-24 23:46:00,
2013-02-24 18:51:00,33.5,25.2,30.11,WNW,283,0.0,3.0,71,0.00,,,0.00,WUHU216DAVISVP2,2013-02-24 23:51:00,
2013-02-24 18:56:00,33.5,25.2,30.11,WNW,283,1.0,2.0,71,0.00,,,0.00,WUHU216DAVISVP2,2013-02-24 23:56:00,
2013-02-24 19:01:00,33.3,25.0,30.11,West,281,1.0,1.0,71,0.00,,,0.00,WUHU216DAVISVP2,2013-02-25 00:01:00,
2013-02-24 19:06:00,33.3,25.0,30.12,WSW,257,0.0,1.0,71,0.00,,,0.00,WUHU216DAVISVP2,2013-02-25 00:06:00,
2013-02-24 19:11:00,33.3,25.0,30.12,WSW,257,0.0,1.0,71,0.00,,,0.00,WUHU216DAVISVP2,2013-02-25 00:11:00,
2013-02-24 19:16:00,33.2,25.2,30.12,WSW,257,0.0,1.0,72,0.00,,,0.00,WUHU216DAVISVP2,2013-02-25 00:16:00,
2013-02-24 19:21:00,33.1,25.1,30.12,WSW,257,0.0,1.0,72,0.00,,,0.00,WUHU216DAVISVP2,2013-02-25 00:21:00,
2013-02-24 19:26:00,33.0,25.0,30.12,SW,219,0.0,1.0,72,0.00,,,0.00,WUHU216DAVISVP2,2013-02-25 00:26:00,
2013-02-24 19:31:00,33.0,25.0,30.13,SW,219,0.0,0.0,72,0.00,,,0.00,WUHU216DAVISVP2,2013-02-25 00:31:00,
2013-02-24 19:36:00,32.8,24.8,30.13,SW,221,0.0,0.0,72,0.00,,,0.00,WUHU216DAVISVP2,2013-02-25 00:36:00,
2013-02-24 19:41:00,32.6,24.6,30.13,SW,221,0.0,0.0,72,0.00,,,0.00,WUHU216DAVISVP2,2013-02-25 00:41:00,
2013-02-24 19:46:00,32.3,24.6,30.13,SW,221,0.0,0.0,73,0.00,,,0.00,WUHU216DAVISVP2,2013-02-25 00:46:00,
2013-02-24 19:51:00,31.9,24.6,30.13,SW,221,0.0,0.0,74,0.00,,,0.00,WUHU216DAVISVP2,2013-02-25 00:51:00,
2013-02-24 19:56:00,31.4,24.4,30.13,SW,221,0.0,0.0,75,0.00,,,0.00,WUHU216DAVISVP2,2013-02-25 00:56:00,
2013-02-24 20:01:00,30.8,24.5,30.13,SW,221,0.0,0.0,77,0.00,,,0.00,WUHU216DAVISVP2,2013-02-25 01:01:00,
2013-02-24 20:06:00,30.5,24.5,30.14,SW,221,0.0,0.0,78,0.00,,,0.00,WUHU216DAVISVP2,2013-02-25 01:06:00,
2013-02-24 20:11:00,30.2,24.2,30.13,SW,221,0.0,0.0,78,0.00,,,0.00,WUHU216DAVISVP2,2013-02-25 01:11:00,
2013-02-24 20:16:00,29.9,24.2,30.14,SW,219,0.0,0.0,79,0.00,,,0.00,WUHU216DAVISVP2,2013-02-25 01:16:00,
2013-02-24 20:21:00,29.6,23.9,30.14,SW,219,0.0,0.0,79,0.00,,,0.00,WUHU216DAVISVP2,2013-02-25 01:21:00,
2013-02-24 20:26:00,29.3,24.5,30.14,SW,219,0.0,0.0,82,0.00,,,0.00,WUHU216DAVISVP2,2013-02-25 01:26:00,
2013-02-24 20:31:00,29.0,24.2,30.14,SW,221,0.0,0.0,82,0.00,,,0.00,WUHU216DAVISVP2,2013-02-25 01:31:00,
2013-02-24 20:36:00,28.9,24.4,30.14,SW,219,0.0,0.0,83,0.00,,,0.00,WUHU216DAVISVP2,2013-02-25 01:36:00,
2013-02-24 20:41:00,28.6,24.4,30.14,SW,219,0.0,0.0,84,0.00,,,0.00,WUHU216DAVISVP2,2013-02-25 01:41:00,
2013-02-24 20:46:00,28.1,23.9,30.14,SW,219,0.0,0.0,84,0.00,,,0.00,WUHU216DAVISVP2,2013-02-25 01:46:00,
2013-02-24 20:51:00,27.3,23.1,30.14,SW,219,0.0,0.0,84,0.00,,,0.00,WUHU216DAVISVP2,2013-02-25 01:51:00,
2013-02-24 20:56:00,26.8,22.9,30.14,SW,219,0.0,0.0,85,0.00,,,0.00,WUHU216DAVISVP2,2013-02-25 01:56:00,
2013-02-24 21:01:00,26.9,23.8,30.14,SW,219,0.0,0.0,88,0.00,,,0.00,WUHU216DAVISVP2,2013-02-25 02:01:00,
2013-02-24 21:06:00,26.6,23.2,30.14,SW,219,0.0,0.0,87,0.00,,,0.00,WUHU216DAVISVP2,2013-02-25 02:06:00,
2013-02-24 21:11:00,26.6,23.8,30.14,SW,219,0.0,0.0,89,0.00,,,0.00,WUHU216DAVISVP2,2013-02-25 02:11:00,
2013-02-24 21:16:00,26.1,23.0,30.14,SW,219,0.0,0.0,88,0.00,,,0.00,WUHU216DAVISVP2,2013-02-25 02:16:00,
2013-02-24 21:21:00,25.5,22.2,30.14,SW,219,0.0,0.0,87,0.00,,,0.00,WUHU216DAVISVP2,2013-02-25 02:21:00,
2013-02-24 21:26:00,25.0,21.9,30.14,SW,219,0.0,0.0,88,0.00,,,0.00,WUHU216DAVISVP2,2013-02-25 02:26:00,
2013-02-24 21:31:00,24.5,21.5,30.14,SW,219,0.0,0.0,88,0.00,,,0.00,WUHU216DAVISVP2,2013-02-25 02:31:00,
2013-02-24 21:36:00,24.3,21.7,30.14,SW,219,0.0,0.0,90,0.00,,,0.00,WUHU216DAVISVP2,2013-02-25 02:36:00,
2013-02-24 21:41:00,24.6,22.3,30.14,SW,219,0.0,0.0,91,0.00,,,0.00,WUHU216DAVISVP2,2013-02-25 02:41:00,
2013-02-24 21:46:00,24.6,22.3,30.15,SW,219,0.0,0.0,91,0.00,,,0.00,WUHU216DAVISVP2,2013-02-25 02:46:00,
2013-02-24 21:51:00,24.5,22.2,30.15,SW,221,0.0,0.0,91,0.00,,,0.00,WUHU216DAVISVP2,2013-02-25 02:51:00,
2013-02-24 21:56:00,24.3,22.0,30.15,SW,221,0.0,0.0,91,0.00,,,0.00,WUHU216DAVISVP2,2013-02-25 02:56:00,
2013-02-24 22:01:00,24.4,22.4,30.15,SW,221,0.0,0.0,92,0.00,,,0.00,WUHU216DAVISVP2,2013-02-25 03:01:00,
2013-02-24 22:06:00,24.6,22.6,30.15,SW,221,0.0,0.0,92,0.00,,,0.00,WUHU216DAVISVP2,2013-02-25 03:06:00,
2013-02-24 22:11:00,25.0,23.2,30.15,SW,224,0.0,0.0,93,0.00,,,0.00,WUHU216DAVISVP2,2013-02-25 03:11:00,
2013-02-24 22:16:00,25.0,23.0,30.15,SW,224,0.0,0.0,92,0.00,,,0.00,WUHU216DAVISVP2,2013-02-25 03:16:00,
2013-02-24 22:21:00,25.0,23.0,30.15,SW,224,0.0,0.0,92,0.00,,,0.00,WUHU216DAVISVP2,2013-02-25 03:21:00,
2013-02-24 22:26:00,25.1,23.1,30.16,SW,232,0.0,0.0,92,0.00,,,0.00,WUHU216DAVISVP2,2013-02-25 03:26:00,
2013-02-24 22:31:00,25.4,23.4,30.15,SW,225,1.0,1.0,92,0.00,,,0.00,WUHU216DAVISVP2,2013-02-25 03:31:00,
2013-02-24 22:36:00,25.7,23.9,30.16,SSW,208,0.0,1.0,93,0.00,,,0.00,WUHU216DAVISVP2,2013-02-25 03:36:00,
2013-02-24 22:41:00,25.3,23.0,30.16,SSW,207,0.0,1.0,91,0.00,,,0.00,WUHU216DAVISVP2,2013-02-25 03:41:00,
2013-02-24 22:46:00,25.1,22.8,30.15,SSW,207,0.0,1.0,91,0.00,,,0.00,WUHU216DAVISVP2,2013-02-25 03:46:00,
2013-02-24 22:51:00,25.1,23.1,30.16,SSW,208,0.0,1.0,92,0.00,,,0.00,WUHU216DAVISVP2,2013-02-25 03:51:00,
2013-02-24 22:56:00,25.1,23.1,30.15,SSW,208,0.0,1.0,92,0.00,,,0.00,WUHU216DAVISVP2,2013-02-25 03:56:00,
2013-02-24 23:01:00,24.9,22.9,30.15,SSW,208,0.0,1.0,92,0.00,,,0.00,WUHU216DAVISVP2,2013-02-25 04:01:00,
2013-02-24 23:06:00,25.1,23.1,30.15,SSW,208,0.0,1.0,92,0.00,,,0.00,WUHU216DAVISVP2,2013-02-25 04:06:00,
2013-02-24 23:11:00,24.9,22.9,30.15,SSW,208,0.0,0.0,92,0.00,,,0.00,WUHU216DAVISVP2,2013-02-25 04:11:00,
2013-02-24 23:16:00,25.0,23.0,30.15,SSW,208,0.0,0.0,92,0.00,,,0.00,WUHU216DAVISVP2,2013-02-25 04:16:00,
2013-02-24 23:21:00,25.2,23.4,30.15,SSW,208,0.0,0.0,93,0.00,,,0.00,WUHU216DAVISVP2,2013-02-25 04:21:00,
2013-02-24 23:26:00,25.2,23.4,30.15,SSW,208,0.0,0.0,93,0.00,,,0.00,WUHU216DAVISVP2,2013-02-25 04:26:00,
2013-02-24 23:31:00,25.1,23.1,30.15,SSW,208,0.0,0.0,92,0.00,,,0.00,WUHU216DAVISVP2,2013-02-25 04:31:00,
2013-02-24 23:36:00,24.7,22.7,30.15,SSW,210,0.0,1.0,92,0.00,,,0.00,WUHU216DAVISVP2,2013-02-25 04:36:00,
2013-02-24 23:41:00,24.1,21.8,30.15,SSW,210,0.0,1.0,91,0.00,,,0.00,WUHU216DAVISVP2,2013-02-25 04:41:00,
2013-02-24 23:46:00,23.5,21.5,30.16,SSW,212,0.0,1.0,92,0.00,,,0.00,WUHU216DAVISVP2,2013-02-25 04:46:00,
2013-02-24 23:51:00,23.5,21.7,30.16,SW,217,0.0,1.0,93,0.00,,,0.00,WUHU216DAVISVP2,2013-02-25 04:51:00,
2013-02-24 23:56:00,23.4,21.6,30.16,SW,217,0.0,1.0,93,0.00,,,0.00,WUHU216DAVISVP2,2013-02-25 04:56:00,